| Date | Time | Temp. (oF) | Dew Point (oF) | Rel. Hum. (%) | Press. (in.) | Wind Dir. | Wind Speed (mph) | Hourly Rainfall (in.) |
|
|---|---|---|---|---|---|---|---|---|---|
| 1 | 08/26 | 00:00 | 71 | 71 | 100 | 30.24 | NE | 5 | 0.00 |
| 2 | 08/25 | 23:00 | 71 | 70 | 97 | 30.24 | NE | 4 | 0.00 |
| 3 | 08/25 | 22:00 | 72 | 68 | 89 | 30.23 | E | 2 | 0.00 |
| 4 | 08/25 | 21:00 | 72 | 67 | 86 | 30.23 | E | 4 | 0.00 |
| 5 | 08/25 | 20:00 | 74 | 66 | 78 | 30.23 | E | 4 | 0.00 |
| 6 | 08/25 | 19:00 | 75 | 67 | 77 | 30.23 | ESE | 3 | 0.00 |
| 7 | 08/25 | 18:00 | 77 | 69 | 78 | 30.22 | SE | 4 | 0.00 |
| 8 | 08/25 | 17:00 | 78 | 67 | 71 | 30.22 | E | 3 | 0.00 |
| 9 | 08/25 | 16:00 | 79 | 69 | 72 | 30.23 | ENE | 9 | 0.00 |
| 10 | 08/25 | 15:00 | 78 | 67 | 71 | 30.23 | ESE | 2 | 0.00 |
| 11 | 08/25 | 14:00 | 79 | 69 | 72 | 30.24 | ENE | 4 | 0.00 |
| 12 | 08/25 | 13:00 | 78 | 67 | 70 | 30.24 | ENE | 8 | 0.00 |
| 13 | 08/25 | 12:00 | 76 | 66 | 73 | 30.25 | ESE | 2 | 0.00 |
| 14 | 08/25 | 11:00 | 76 | 68 | 78 | 30.26 | ESE | 3 | 0.00 |
| 15 | 08/25 | 10:00 | 74 | 70 | 89 | 30.27 | ESE | 3 | 0.00 |
| 16 | 08/25 | 09:00 | 70 | 68 | 94 | 30.26 | ESE | 5 | 0.00 |
| 17 | 08/25 | 08:00 | 68 | 68 | 100 | 30.25 | ENE | 2 | 0.00 |
| 18 | 08/25 | 07:00 | 66 | 66 | 100 | 30.24 | E | 0 | 0.00 |
| 19 | 08/25 | 06:00 | 67 | 67 | 100 | 30.22 | ENE | 0 | 0.00 |
| 20 | 08/25 | 05:00 | 67 | 66 | 98 | 30.21 | E | 0 | 0.00 |
| 21 | 08/25 | 04:00 | 68 | 67 | 98 | 30.20 | ENE | 0 | 0.00 |
| 22 | 08/25 | 03:00 | 69 | 68 | 98 | 30.20 | E | 0 | 0.00 |
| 23 | 08/25 | 02:00 | 69 | 67 | 96 | 30.20 | ESE | 0 | 0.00 |
| 24 | 08/25 | 01:00 | 70 | 68 | 94 | 30.21 | SE | 0 | 0.00 |